Time;durP1;ratioP1;P1;durP2;ratioP2;P2;SDS_P1;SDS_P2;PMS_P1;PMS_P2;Temp;Humidity;BMP_temperature;BMP_pressure;BME280_temperature;BME280_humidity;BME280_pressure;Samples;Min_cycle;Max_cycle;Signal;HPM_P1;HPM_P2
2023/09/02 00:00:56;;;;;;;0.00;0.00;;;;;;;20.91;54.52;101146.66;7362845;19;20486;-61
2023/09/02 00:03:22;;;;;;;0.00;0.00;;;;;;;20.89;54.98;101148.56;7363088;19;20022;-61
2023/09/02 00:05:47;;;;;;;0.00;0.00;;;;;;;20.87;55.23;101139.81;7360564;19;20492;-60
2023/09/02 00:08:13;;;;;;;0.10;0.10;;;;;;;20.85;55.36;101141.72;7366271;19;20007;-60
2023/09/02 00:10:38;;;;;;;0.10;0.10;;;;;;;20.83;55.18;101148.91;7355640;19;20017;-61
2023/09/02 00:13:03;;;;;;;0.00;0.00;;;;;;;20.81;55.32;101150.81;7366403;19;20038;-61
2023/09/02 00:15:29;;;;;;;0.00;0.00;;;;;;;20.80;55.21;101156.22;7363150;19;20367;-61
2023/09/02 00:17:54;;;;;;;0.05;0.05;;;;;;;20.78;55.16;101161.59;7362601;19;20494;-61
2023/09/02 00:20:21;;;;;;;0.10;0.10;;;;;;;20.77;55.76;101159.88;7358918;19;20018;-60
2023/09/02 00:22:46;;;;;;;0.10;0.10;;;;;;;20.77;55.52;101169.66;7363831;19;20010;-60
2023/09/02 00:25:12;;;;;;;0.03;0.03;;;;;;;20.77;56.08;101174.97;7361541;19;20484;-60
2023/09/02 00:27:37;;;;;;;0.10;0.10;;;;;;;20.77;55.85;101180.25;7366893;19;20014;-60
2023/09/02 00:30:03;;;;;;;0.10;0.10;;;;;;;20.76;56.05;101168.78;7363851;19;20040;-60
2023/09/02 00:32:29;;;;;;;0.00;0.00;;;;;;;20.73;55.72;101171.63;7361346;19;20323;-61
2023/09/02 00:34:54;;;;;;;0.10;0.10;;;;;;;20.75;55.91;101167.09;7364778;19;20014;-60
2023/09/02 00:37:20;;;;;;;0.00;0.00;;;;;;;20.76;55.84;101167.94;7345510;19;20006;-61
2023/09/02 00:39:45;;;;;;;0.00;0.00;;;;;;;20.69;55.71;101170.09;7363935;19;20022;-60
2023/09/02 00:42:14;;;;;;;0.10;0.10;;;;;;;20.73;55.61;101174.28;7364317;19;20010;-59
2023/09/02 00:44:40;;;;;;;0.10;0.10;;;;;;;20.69;55.89;101168.31;7356755;19;20018;-61
2023/09/02 00:47:05;;;;;;;0.00;0.00;;;;;;;20.66;56.14;101162.31;7361811;19;20078;-61
2023/09/02 00:49:34;;;;;;;0.10;0.10;;;;;;;20.56;55.47;101155.81;7352984;19;20030;-57
2023/09/02 00:51:59;;;;;;;0.00;0.00;;;;;;;20.56;55.44;101167.28;7364932;19;20025;-58
2023/09/02 00:54:25;;;;;;;0.00;0.00;;;;;;;20.51;55.72;101179.97;7359039;19;20007;-61
2023/09/02 00:56:51;;;;;;;0.03;0.03;;;;;;;20.45;55.85;101173.16;7360285;19;20009;-61
2023/09/02 00:59:16;;;;;;;0.10;0.10;;;;;;;20.41;55.43;101179.59;7361461;19;20435;-59
2023/09/02 01:01:45;;;;;;;0.10;0.10;;;;;;;20.37;55.79;101180.69;7359658;19;20022;-61
2023/09/02 01:04:11;;;;;;;0.00;0.00;;;;;;;20.30;55.52;101179.34;7364915;19;20028;-60
2023/09/02 01:06:37;;;;;;;0.10;0.10;;;;;;;20.22;55.65;101168.28;7360112;19;20015;-59
2023/09/02 01:09:04;;;;;;;0.10;0.10;;;;;;;20.19;55.40;101168.47;7361991;19;20002;-58
2023/09/02 01:11:30;;;;;;;0.10;0.10;;;;;;;20.14;55.71;101165.22;7363062;19;20481;-60
2023/09/02 01:13:55;;;;;;;0.00;0.00;;;;;;;20.05;55.20;101165.72;7361279;19;20011;-60
2023/09/02 01:16:21;;;;;;;0.00;0.00;;;;;;;20.04;55.19;101180.78;7362389;19;20390;-59
2023/09/02 01:18:47;;;;;;;0.00;0.00;;;;;;;20.00;55.25;101199.56;7358920;19;20015;-58
2023/09/02 01:21:34;;;;;;;0.00;0.00;;;;;;;19.98;54.81;101196.16;7359354;19;20049;-59
2023/09/02 01:24:28;;;;;;;0.10;0.10;;;;;;;19.92;55.08;101187.59;7358933;19;20014;-61
2023/09/02 01:27:02;;;;;;;0.10;0.10;;;;;;;19.87;54.91;101194.94;7362509;19;20017;-61
2023/09/02 01:29:34;;;;;;;0.10;0.10;;;;;;;19.83;55.43;101214.59;7360902;19;20007;-60
2023/09/02 01:32:01;;;;;;;0.03;0.03;;;;;;;19.78;55.90;101219.28;7357531;19;20010;-59
2023/09/02 01:34:30;;;;;;;0.10;0.10;;;;;;;19.74;55.73;101215.06;7361781;19;20090;-60
2023/09/02 01:36:57;;;;;;;0.00;0.00;;;;;;;19.68;56.24;101205.66;7362954;19;20010;-59
2023/09/02 01:39:25;;;;;;;0.10;0.10;;;;;;;19.66;56.06;101211.97;7362300;19;20022;-60
2023/09/02 01:41:52;;;;;;;0.00;0.00;;;;;;;19.52;55.66;101209.16;7362645;19;20489;-59
2023/09/02 01:44:18;;;;;;;0.10;0.10;;;;;;;19.45;55.98;101219.19;7358500;19;21224;-61
2023/09/02 01:46:45;;;;;;;0.10;0.10;;;;;;;19.55;56.34;101246.94;7362673;19;21414;-61
2023/09/02 01:49:11;;;;;;;0.10;0.10;;;;;;;19.51;56.12;101241.88;7359435;19;20372;-57
2023/09/02 01:51:39;;;;;;;0.10;0.10;;;;;;;19.48;56.06;101234.09;7361580;19;20010;-60
2023/09/02 01:54:04;;;;;;;;;;;;;;;19.45;54.71;101238.59;7362259;19;20475;-61
2023/09/02 01:56:30;;;;;;;0.00;0.00;;;;;;;19.40;55.91;101242.41;7361538;19;19910;-60
2023/09/02 01:58:57;;;;;;;0.03;0.03;;;;;;;19.36;56.57;101236.44;7358693;19;20070;-61
2023/09/02 02:01:22;;;;;;;0.10;0.10;;;;;;;19.33;56.25;101231.28;7363476;19;20045;-61
2023/09/02 02:04:08;;;;;;;0.10;0.10;;;;;;;19.30;55.57;101223.50;7362301;19;20014;-60
2023/09/02 02:06:38;;;;;;;0.10;0.10;;;;;;;19.24;56.75;101229.09;7356757;19;20134;-59
2023/09/02 02:09:17;;;;;;;0.00;0.00;;;;;;;19.19;56.34;101229.34;7363239;19;20465;-59
2023/09/02 02:11:45;;;;;;;0.00;0.00;;;;;;;19.15;56.68;101243.66;7362026;19;20023;-61
2023/09/02 02:14:10;;;;;;;0.10;0.10;;;;;;;19.10;56.84;101240.38;7360545;19;20050;-61
2023/09/02 02:16:36;;;;;;;0.03;0.03;;;;;;;19.09;56.56;101232.50;7357978;19;20003;-59
2023/09/02 02:19:02;;;;;;;0.00;0.00;;;;;;;19.01;56.86;101224.09;7362394;19;20609;-58
2023/09/02 02:21:29;;;;;;;0.00;0.00;;;;;;;19.01;57.04;101227.63;7359340;19;20017;-60
2023/09/02 02:23:54;;;;;;;0.10;0.10;;;;;;;19.02;57.00;101225.81;7363734;19;20116;-58
2023/09/02 02:26:20;;;;;;;0.08;0.08;;;;;;;18.99;57.22;101231.25;7362968;19;20070;-60
2023/09/02 02:28:46;;;;;;;0.00;0.00;;;;;;;18.98;57.24;101229.53;7361773;19;20037;-60
2023/09/02 02:31:12;;;;;;;0.00;0.00;;;;;;;18.88;57.28;101222.06;7363652;19;20013;-60
2023/09/02 02:33:37;;;;;;;0.10;0.10;;;;;;;18.92;56.96;101228.91;7361493;19;20010;-61
2023/09/02 02:36:04;;;;;;;0.10;0.10;;;;;;;18.91;56.84;101235.16;7359299;19;20014;-61
2023/09/02 02:38:29;;;;;;;0.00;0.00;;;;;;;18.88;57.04;101229.13;7359089;19;20029;-60
2023/09/02 02:40:55;;;;;;;0.10;0.10;;;;;;;18.86;56.73;101225.72;7358355;19;20298;-59
2023/09/02 02:43:26;;;;;;;0.10;0.10;;;;;;;18.70;56.57;101207.06;7358835;19;20022;-60
2023/09/02 02:45:55;;;;;;;0.10;0.10;;;;;;;18.81;56.79;101233.88;7360100;19;20074;-59
2023/09/02 02:48:24;;;;;;;0.10;0.10;;;;;;;18.77;56.87;101237.59;7365341;19;20505;-58
2023/09/02 02:50:49;;;;;;;0.10;0.10;;;;;;;18.74;56.98;101236.88;7374600;19;20034;-60
2023/09/02 02:53:14;;;;;;;0.03;0.03;;;;;;;18.70;56.79;101238.81;7378666;19;20011;-60
2023/09/02 02:55:41;;;;;;;0.00;0.00;;;;;;;18.66;56.48;101248.69;7367436;19;20015;-60
2023/09/02 02:58:07;;;;;;;0.10;0.10;;;;;;;18.63;56.59;101240.00;7368267;19;20648;-60
2023/09/02 03:00:32;;;;;;;0.00;0.00;;;;;;;18.61;57.25;101242.75;7372174;19;20018;-60
2023/09/02 03:02:58;;;;;;;0.10;0.10;;;;;;;18.58;57.23;101242.03;7362320;19;20380;-60
2023/09/02 03:05:23;;;;;;;0.00;0.00;;;;;;;18.56;57.37;101243.91;7371614;19;20059;-61
2023/09/02 03:07:49;;;;;;;0.10;0.10;;;;;;;18.55;57.15;101245.69;7370847;19;20078;-59
2023/09/02 03:10:15;;;;;;;0.00;0.00;;;;;;;18.54;57.73;101251.03;7368582;19;20003;-60
2023/09/02 03:12:40;;;;;;;0.00;0.00;;;;;;;18.53;57.77;101250.16;7365975;19;20002;-60
2023/09/02 03:15:06;;;;;;;0.00;0.00;;;;;;;18.44;57.87;101232.09;7369306;19;20013;-61
2023/09/02 03:17:32;;;;;;;0.10;0.10;;;;;;;18.53;57.54;101249.31;7345881;19;20006;-61
2023/09/02 03:19:58;;;;;;;0.00;0.00;;;;;;;18.46;57.71;101232.03;7368600;19;20018;-58
2023/09/02 03:22:23;;;;;;;0.00;0.00;;;;;;;18.42;57.64;101240.09;7368732;19;20011;-58
2023/09/02 03:24:53;;;;;;;0.00;0.00;;;;;;;18.55;57.63;101258.03;7367809;19;20010;-61
2023/09/02 03:27:19;;;;;;;0.00;0.00;;;;;;;18.53;57.67;101254.59;7373258;19;20070;-59
2023/09/02 03:29:48;;;;;;;0.03;0.03;;;;;;;18.49;57.35;101256.53;7352816;19;20010;-61
2023/09/02 03:32:13;;;;;;;0.10;0.10;;;;;;;18.50;58.00;101265.31;7370407;19;20014;-61
2023/09/02 03:34:39;;;;;;;0.10;0.10;;;;;;;18.48;57.86;101267.19;7364719;19;20018;-60
2023/09/02 03:37:04;;;;;;;0.00;0.00;;;;;;;18.47;57.75;101270.75;7369325;19;20005;-60
2023/09/02 03:39:31;;;;;;;0.10;0.10;;;;;;;18.37;57.94;101260.63;7367921;19;20021;-59
2023/09/02 03:41:56;;;;;;;0.07;0.07;;;;;;;18.44;57.78;101281.47;7366622;19;20006;-59
2023/09/02 03:44:21;;;;;;;0.00;0.00;;;;;;;18.31;57.75;101260.91;7366601;19;20013;-58
2023/09/02 03:46:47;;;;;;;0.00;0.00;;;;;;;18.40;58.17;101286.94;7345192;19;20002;-60
2023/09/02 03:49:12;;;;;;;0.00;0.00;;;;;;;18.38;58.15;101288.75;7367116;19;20010;-61
2023/09/02 03:51:38;;;;;;;0.10;0.10;;;;;;;18.39;58.02;101290.47;7367240;19;20006;-61
2023/09/02 03:54:04;;;;;;;0.00;0.00;;;;;;;18.39;58.43;101285.19;7367389;19;20026;-58
2023/09/02 03:56:29;;;;;;;0.00;0.00;;;;;;;18.39;58.46;101285.19;7377406;19;20021;-60
2023/09/02 03:58:55;;;;;;;0.00;0.00;;;;;;;18.38;59.04;101286.13;7370698;19;20034;-61
2023/09/02 04:01:20;;;;;;;0.00;0.00;;;;;;;18.40;58.81;101291.34;7362841;19;20003;-59
2023/09/02 04:03:45;;;;;;;0.08;0.08;;;;;;;18.39;59.01;101287.81;7368916;19;20018;-58
2023/09/02 04:06:11;;;;;;;0.10;0.10;;;;;;;18.42;59.42;101295.63;7365668;19;20561;-60
2023/09/02 04:08:36;;;;;;;0.10;0.10;;;;;;;18.44;59.84;101297.34;7368504;19;20006;-60
2023/09/02 04:11:02;;;;;;;0.10;0.10;;;;;;;18.44;59.64;101298.19;7367476;19;20023;-59
2023/09/02 04:13:29;;;;;;;0.10;0.10;;;;;;;18.28;59.37;101268.97;7365857;19;20767;-61
2023/09/02 04:16:00;;;;;;;0.08;0.08;;;;;;;18.47;59.98;101298.06;7366867;19;20793;-60
2023/09/02 04:18:26;;;;;;;0.10;0.10;;;;;;;18.45;60.44;101296.41;7365059;19;20014;-57
2023/09/02 04:20:52;;;;;;;0.10;0.10;;;;;;;18.45;60.67;101305.22;7368270;19;20082;-61
2023/09/02 04:23:18;;;;;;;0.00;0.00;;;;;;;18.37;60.61;101291.47;7364024;19;20765;-60
2023/09/02 04:25:50;;;;;;;0.00;0.00;;;;;;;18.44;60.50;101300.00;7367052;19;20013;-60
2023/09/02 04:28:16;;;;;;;0.03;0.03;;;;;;;18.46;60.60;101309.59;7368131;19;20107;-61
2023/09/02 04:30:42;;;;;;;0.00;0.00;;;;;;;18.47;60.94;101307.78;7368859;19;20329;-60
2023/09/02 04:33:08;;;;;;;0.00;0.00;;;;;;;18.37;60.95;101299.41;7368076;19;20010;-59
2023/09/02 04:35:43;;;;;;;0.10;0.10;;;;;;;18.49;60.21;101308.56;7362734;19;20102;-60
2023/09/02 04:38:09;;;;;;;0.10;0.10;;;;;;;18.47;61.61;101319.22;7365530;19;20489;-58
2023/09/02 04:40:42;;;;;;;0.00;0.00;;;;;;;18.49;61.15;101316.50;7362139;19;20037;-60
2023/09/02 04:43:11;;;;;;;0.10;0.10;;;;;;;18.47;61.65;101313.09;7365497;19;20010;-60
2023/09/02 04:45:42;;;;;;;0.00;0.00;;;;;;;18.48;61.78;101314.78;7365091;19;20031;-59
2023/09/02 04:48:08;;;;;;;0.10;0.10;;;;;;;18.44;62.28;101305.28;7362950;19;20425;-60
2023/09/02 04:50:35;;;;;;;0.10;0.10;;;;;;;18.45;62.48;101314.91;7369689;19;20010;-59
2023/09/02 04:53:01;;;;;;;0.05;0.05;;;;;;;18.44;62.08;101323.78;7360350;19;20010;-57
2023/09/02 04:55:28;;;;;;;0.10;0.10;;;;;;;18.42;61.65;101322.06;7363259;19;20760;-60
2023/09/02 04:57:58;;;;;;;0.10;0.10;;;;;;;18.41;61.56;101328.31;7366809;19;20066;-60
2023/09/02 05:00:24;;;;;;;0.00;0.00;;;;;;;18.39;61.46;101330.13;7357554;19;20010;-60
2023/09/02 05:02:50;;;;;;;0.10;0.10;;;;;;;18.37;61.69;101329.34;7365758;19;20021;-60
2023/09/02 05:05:17;;;;;;;0.00;0.00;;;;;;;18.36;61.72;101337.38;7365107;19;20022;-59
2023/09/02 05:07:43;;;;;;;0.00;0.00;;;;;;;18.34;61.75;101340.06;7365883;19;20010;-61
2023/09/02 05:10:09;;;;;;;0.00;0.00;;;;;;;18.28;61.70;101329.78;7366360;19;20581;-60
2023/09/02 05:12:34;;;;;;;0.10;0.10;;;;;;;18.30;61.86;101342.94;7373971;19;20053;-61
2023/09/02 05:15:00;;;;;;;0.10;0.10;;;;;;;18.27;61.99;101357.13;7373371;19;20014;-61
2023/09/02 05:17:26;;;;;;;0.00;0.00;;;;;;;18.22;61.94;101351.19;7371385;19;20027;-60
2023/09/02 05:19:51;;;;;;;0.00;0.00;;;;;;;18.22;61.77;101361.78;7374016;19;20086;-60
2023/09/02 05:22:17;;;;;;;0.00;0.00;;;;;;;18.20;62.08;101363.63;7364765;19;20028;-59
2023/09/02 05:24:42;;;;;;;0.10;0.10;;;;;;;18.17;61.98;101366.41;7366771;19;20006;-59
2023/09/02 05:27:08;;;;;;;0.00;0.00;;;;;;;18.15;61.67;101374.41;7363893;19;20007;-60
2023/09/02 05:29:33;;;;;;;0.00;0.00;;;;;;;18.13;62.04;101378.03;7365281;19;20483;-61
2023/09/02 05:31:59;;;;;;;0.00;0.00;;;;;;;18.09;61.69;101379.09;7360164;19;20011;-60
2023/09/02 05:34:24;;;;;;;0.10;0.10;;;;;;;18.09;62.21;101381.72;7362048;19;20053;-61
2023/09/02 05:36:49;;;;;;;0.00;0.00;;;;;;;18.04;61.95;101375.78;7364225;19;20010;-60
2023/09/02 05:39:15;;;;;;;0.00;0.00;;;;;;;18.03;62.11;101382.00;7364085;19;20018;-58
2023/09/02 05:41:40;;;;;;;0.00;0.00;;;;;;;18.01;62.30;101391.78;7363825;19;20523;-60
2023/09/02 05:44:06;;;;;;;0.10;0.10;;;;;;;17.99;62.62;101391.81;7363275;19;20006;-59
2023/09/02 05:46:31;;;;;;;0.10;0.10;;;;;;;17.97;62.33;101392.84;7363867;19;20033;-60
2023/09/02 05:48:56;;;;;;;0.00;0.00;;;;;;;17.93;63.01;101389.44;7363131;19;20018;-60
2023/09/02 05:51:22;;;;;;;0.00;0.00;;;;;;;17.92;63.10;101392.16;7365776;19;20473;-60
2023/09/02 05:53:47;;;;;;;0.00;0.00;;;;;;;17.88;63.12;101394.94;7358443;19;20646;-60
2023/09/02 05:56:13;;;;;;;0.00;0.00;;;;;;;17.88;62.54;101405.50;7364507;19;20007;-61
2023/09/02 05:58:38;;;;;;;0.00;0.00;;;;;;;17.86;62.57;101407.34;7356014;19;20011;-61
2023/09/02 06:01:04;;;;;;;0.00;0.00;;;;;;;17.85;62.74;101413.56;7362048;19;20025;-60
2023/09/02 06:03:30;;;;;;;0.00;0.00;;;;;;;17.85;62.50;101415.34;7361219;19;20014;-60
2023/09/02 06:05:56;;;;;;;0.00;0.00;;;;;;;17.84;63.01;101419.78;7364567;19;21118;-59
2023/09/02 06:08:21;;;;;;;0.10;0.10;;;;;;;17.83;62.97;101423.31;7370625;19;20461;-60
2023/09/02 06:10:59;;;;;;;0.10;0.10;;;;;;;17.86;62.19;101423.22;7362000;19;20002;-61
2023/09/02 06:13:25;;;;;;;0.08;0.08;;;;;;;17.81;63.06;101419.91;7363904;19;20019;-60
2023/09/02 06:15:50;;;;;;;0.08;0.08;;;;;;;17.84;62.91;101426.81;7361129;19;20882;-59
2023/09/02 06:18:16;;;;;;;0.00;0.00;;;;;;;17.84;63.02;101433.00;7360393;19;20712;-60
2023/09/02 06:20:41;;;;;;;0.10;0.10;;;;;;;17.84;62.94;101435.63;7361926;19;21874;-61
2023/09/02 06:23:07;;;;;;;0.10;0.10;;;;;;;17.81;63.05;101429.59;7360396;19;20049;-61
2023/09/02 06:25:32;;;;;;;0.00;0.00;;;;;;;17.85;63.48;101442.63;7369334;19;20105;-60
2023/09/02 06:27:57;;;;;;;0.10;0.10;;;;;;;17.86;63.30;101452.28;7369035;19;20014;-60
2023/09/02 06:30:23;;;;;;;0.10;0.10;;;;;;;17.88;63.30;101446.91;7368854;19;20010;-60
2023/09/02 06:32:48;;;;;;;0.03;0.03;;;;;;;17.89;63.31;101454.81;7369912;19;20018;-60
2023/09/02 06:35:15;;;;;;;0.03;0.03;;;;;;;17.92;62.72;101463.50;7368745;19;20007;-61
2023/09/02 06:37:43;;;;;;;0.00;0.00;;;;;;;17.95;62.54;101464.25;7364177;19;20037;-60
2023/09/02 06:40:09;;;;;;;0.00;0.00;;;;;;;17.95;63.36;101464.25;7358770;19;20010;-60
2023/09/02 06:42:35;;;;;;;0.00;0.00;;;;;;;17.99;63.17;101470.25;7371394;19;20011;-61
2023/09/02 06:45:00;;;;;;;0.10;0.10;;;;;;;18.00;62.89;101469.34;7368830;19;20010;-59
2023/09/02 06:47:26;;;;;;;0.10;0.10;;;;;;;18.02;63.32;101470.13;7369065;19;20010;-60
2023/09/02 06:49:51;;;;;;;0.10;0.10;;;;;;;18.04;63.43;101474.41;7368261;19;20055;-59
2023/09/02 06:52:17;;;;;;;0.10;0.10;;;;;;;17.97;63.21;101456.25;7365871;19;20041;-60
2023/09/02 06:54:43;;;;;;;0.00;0.00;;;;;;;18.10;63.43;101478.63;7367339;19;20025;-61
2023/09/02 06:57:08;;;;;;;0.08;0.08;;;;;;;18.13;63.57;101483.75;7369268;19;20006;-59
2023/09/02 06:59:34;;;;;;;0.10;0.10;;;;;;;18.15;63.57;101487.22;7367130;19;20006;-60
2023/09/02 07:01:59;;;;;;;0.10;0.10;;;;;;;18.18;63.47;101492.34;7366888;19;20052;-61
2023/09/02 07:04:25;;;;;;;0.03;0.03;;;;;;;18.21;63.23;101489.59;7368372;19;20010;-61
2023/09/02 07:06:50;;;;;;;0.10;0.10;;;;;;;18.24;63.05;101491.25;7367946;19;20219;-60
2023/09/02 07:09:16;;;;;;;0.10;0.10;;;;;;;18.26;63.50;101500.84;7368472;19;20804;-60
2023/09/02 07:11:41;;;;;;;0.10;0.10;;;;;;;18.29;63.20;101495.41;7369374;19;20018;-58
2023/09/02 07:14:07;;;;;;;0.10;0.10;;;;;;;18.33;63.35;101494.34;7366603;19;20005;-60
2023/09/02 07:16:32;;;;;;;0.00;0.00;;;;;;;18.37;63.02;101489.81;7370937;19;20114;-60
2023/09/02 07:18:58;;;;;;;0.03;0.03;;;;;;;18.40;63.13;101498.47;7363648;19;20017;-60
2023/09/02 07:21:24;;;;;;;0.00;0.00;;;;;;;18.41;63.38;101486.97;7368587;19;20365;-60
2023/09/02 07:23:51;;;;;;;0.10;0.10;;;;;;;18.48;62.99;101492.00;7371041;19;20002;-60
2023/09/02 07:26:17;;;;;;;0.10;0.10;;;;;;;18.51;63.01;101500.66;7372176;19;20022;-61
2023/09/02 07:28:42;;;;;;;0.00;0.00;;;;;;;18.55;62.78;101502.25;7368041;19;20340;-60
2023/09/02 07:31:09;;;;;;;0.00;0.00;;;;;;;18.51;63.19;101489.22;7369792;19;20637;-61
2023/09/02 07:33:34;;;;;;;0.00;0.00;;;;;;;18.63;62.84;101500.13;7366413;19;20046;-58
2023/09/02 07:36:10;;;;;;;0.08;0.08;;;;;;;18.72;62.66;101508.63;7368276;19;20569;-62
2023/09/02 07:38:36;;;;;;;0.10;0.10;;;;;;;18.67;62.95;101504.34;7368817;19;20046;-61
2023/09/02 07:41:02;;;;;;;0.05;0.05;;;;;;;18.77;62.59;101518.06;7372671;19;20006;-60
2023/09/02 07:43:27;;;;;;;0.10;0.10;;;;;;;18.80;63.10;101523.22;7366273;19;20007;-61
2023/09/02 07:45:54;;;;;;;0.10;0.10;;;;;;;18.85;62.88;101515.94;7364651;19;20029;-61
2023/09/02 07:48:19;;;;;;;0.10;0.10;;;;;;;18.90;62.65;101524.53;7362463;19;20003;-60
2023/09/02 07:50:44;;;;;;;0.00;0.00;;;;;;;18.92;62.30;101525.34;7368185;19;20710;-60
2023/09/02 07:53:10;;;;;;;0.10;0.10;;;;;;;19.00;62.72;101532.06;7363942;19;20014;-61
2023/09/02 07:55:36;;;;;;;0.10;0.10;;;;;;;18.95;62.57;101521.69;7367286;19;20030;-59
2023/09/02 07:58:01;;;;;;;0.10;0.10;;;;;;;19.11;62.83;101538.63;7371936;19;20021;-60
2023/09/02 08:00:28;;;;;;;0.05;0.05;;;;;;;19.17;62.33;101543.63;7377656;19;20010;-59
2023/09/02 08:02:53;;;;;;;0.00;0.00;;;;;;;19.23;62.60;101550.44;7365746;19;20290;-61
2023/09/02 08:05:19;;;;;;;0.10;0.10;;;;;;;19.28;62.75;101553.75;7365660;19;20021;-60
2023/09/02 08:07:45;;;;;;;0.10;0.10;;;;;;;19.34;62.38;101561.41;7369050;19;20010;-61
2023/09/02 08:10:10;;;;;;;0.10;0.10;;;;;;;19.40;62.42;101558.47;7353877;19;20069;-61
2023/09/02 08:12:36;;;;;;;0.10;0.10;;;;;;;19.46;62.50;101565.28;7354808;19;20618;-59
2023/09/02 08:15:01;;;;;;;0.10;0.10;;;;;;;19.52;62.65;101558.84;7358355;19;20989;-61
2023/09/02 08:17:27;;;;;;;0.10;0.10;;;;;;;19.56;62.55;101552.47;7365548;19;20011;-58
2023/09/02 08:19:52;;;;;;;0.10;0.10;;;;;;;19.64;62.58;101558.31;7366060;19;20033;-61
2023/09/02 08:22:18;;;;;;;0.03;0.03;;;;;;;19.69;62.17;101559.81;7364998;19;20014;-61
2023/09/02 08:24:43;;;;;;;0.10;0.10;;;;;;;19.78;62.42;101570.91;7364872;19;20078;-61
2023/09/02 08:27:09;;;;;;;0.10;0.10;;;;;;;19.86;62.36;101566.09;7364801;19;20024;-61
2023/09/02 08:29:34;;;;;;;0.10;0.10;;;;;;;19.95;62.13;101573.59;7367034;19;20019;-61
2023/09/02 08:32:00;;;;;;;0.10;0.10;;;;;;;20.04;62.40;101572.31;7363422;19;20014;-61
2023/09/02 08:34:26;;;;;;;0.10;0.10;;;;;;;20.12;62.03;101575.44;7366920;19;20946;-61
2023/09/02 08:36:51;;;;;;;0.00;0.00;;;;;;;20.17;61.79;101568.13;7365037;19;20010;-61
2023/09/02 08:39:16;;;;;;;0.10;0.10;;;;;;;20.28;62.12;101565.81;7363136;19;20082;-61
2023/09/02 08:41:44;;;;;;;0.10;0.10;;;;;;;20.38;61.66;101571.53;7366378;19;20017;-60
2023/09/02 08:44:14;;;;;;;0.10;0.10;;;;;;;20.44;61.91;101577.38;7364024;19;20032;-60
2023/09/02 08:46:41;;;;;;;0.10;0.10;;;;;;;20.47;61.80;101576.38;7370810;19;20045;-60
2023/09/02 08:49:08;;;;;;;;;;;;;;;20.66;60.98;101593.09;7364113;19;20014;-60
2023/09/02 08:51:34;;;;;;;0.10;0.10;;;;;;;20.66;61.43;101593.09;7368879;19;20702;-60
2023/09/02 08:54:00;;;;;;;0.00;0.00;;;;;;;20.71;61.66;101588.41;7360825;19;20081;-61
2023/09/02 08:56:26;;;;;;;0.10;0.10;;;;;;;20.70;61.55;101577.88;7364094;19;20462;-61
2023/09/02 08:58:54;;;;;;;0.03;0.03;;;;;;;20.87;61.44;101591.16;7361060;19;20017;-59
2023/09/02 09:01:21;;;;;;;0.03;0.03;;;;;;;20.90;61.65;101588.34;7365213;19;20078;-60
2023/09/02 09:03:49;;;;;;;0.03;0.03;;;;;;;20.99;61.34;101592.31;7362640;19;20042;-61
2023/09/02 09:06:18;;;;;;;0.10;0.10;;;;;;;21.06;61.59;101585.75;7367669;19;20014;-60
2023/09/02 09:08:46;;;;;;;0.10;0.10;;;;;;;21.10;61.66;101583.78;7366563;19;20085;-60
2023/09/02 09:11:15;;;;;;;0.00;0.00;;;;;;;21.20;61.61;101593.00;7365013;19;20011;-61
2023/09/02 09:13:45;;;;;;;0.00;0.00;;;;;;;21.29;61.43;101589.84;7361082;19;20038;-60
2023/09/02 09:16:15;;;;;;;0.00;0.00;;;;;;;21.39;61.39;101591.09;7365991;19;20015;-61
2023/09/02 09:18:41;;;;;;;0.10;0.10;;;;;;;21.44;61.28;101597.03;7370265;19;20411;-61
2023/09/02 09:21:07;;;;;;;0.03;0.03;;;;;;;21.50;61.30;101602.00;7370157;19;20014;-61
2023/09/02 09:23:35;;;;;;;0.10;0.10;;;;;;;21.67;61.21;101610.84;7364713;19;20629;-58
2023/09/02 09:26:03;;;;;;;0.05;0.05;;;;;;;21.75;61.42;101611.31;7362949;19;20078;-60
2023/09/02 09:28:50;;;;;;;0.00;0.00;;;;;;;21.81;60.99;101595.00;7362893;19;20981;-60
2023/09/02 09:31:17;;;;;;;0.00;0.00;;;;;;;21.85;61.09;101611.66;7366382;19;20018;-60
2023/09/02 09:34:00;;;;;;;0.10;0.10;;;;;;;22.09;60.30;101614.72;7360193;19;20019;-60
2023/09/02 09:36:27;;;;;;;0.00;0.00;;;;;;;22.10;61.20;101622.66;7364115;19;20469;-60
2023/09/02 09:39:03;;;;;;;0.10;0.10;;;;;;;22.18;60.84;101622.22;7360500;19;20003;-60
2023/09/02 09:41:29;;;;;;;0.10;0.10;;;;;;;22.26;60.84;101625.31;7368796;19;20487;-59
2023/09/02 09:44:12;;;;;;;0.10;0.10;;;;;;;22.42;60.26;101628.81;7362775;19;20088;-61
2023/09/02 09:46:44;;;;;;;0.08;0.08;;;;;;;22.48;60.40;101630.25;7365874;19;20042;-61
2023/09/02 09:49:22;;;;;;;0.10;0.10;;;;;;;22.59;60.06;101624.31;7359421;19;20014;-59
2023/09/02 09:51:51;;;;;;;0.10;0.10;;;;;;;22.66;60.12;101625.69;7371316;19;20078;-61
2023/09/02 09:54:16;;;;;;;0.00;0.00;;;;;;;22.74;60.21;101621.59;7368607;19;20006;-60
2023/09/02 09:56:43;;;;;;;0.10;0.10;;;;;;;22.86;59.96;101616.50;7364506;19;20466;-59
2023/09/02 09:59:08;;;;;;;0.10;0.10;;;;;;;23.03;60.26;101630.56;7359770;19;20014;-61
2023/09/02 10:01:35;;;;;;;0.00;0.00;;;;;;;23.16;59.61;101632.47;7356928;19;21576;-59
2023/09/02 10:04:06;;;;;;;0.10;0.10;;;;;;;23.26;59.48;101620.28;7353399;19;20015;-61
2023/09/02 10:06:37;;;;;;;0.00;0.00;;;;;;;23.45;59.17;101634.22;7357394;19;20711;-60
2023/09/02 10:09:02;;;;;;;0.10;0.10;;;;;;;23.48;59.09;101636.69;7360320;19;20827;-60
2023/09/02 10:11:28;;;;;;;0.03;0.03;;;;;;;23.58;58.89;101631.66;7362924;19;20006;-61
2023/09/02 10:13:53;;;;;;;0.00;0.00;;;;;;;23.65;58.64;101642.81;7359754;19;20546;-62
2023/09/02 10:16:22;;;;;;;0.10;0.10;;;;;;;23.73;58.59;101645.88;7358982;19;20516;-61
2023/09/02 10:18:48;;;;;;;0.10;0.10;;;;;;;23.82;58.28;101650.59;7359654;19;20583;-62
2023/09/02 10:21:15;;;;;;;0.10;0.10;;;;;;;23.96;58.21;101653.25;7362850;19;20055;-59
2023/09/02 10:23:49;;;;;;;0.10;0.10;;;;;;;24.11;57.87;101639.88;7357634;19;20011;-60
2023/09/02 10:26:33;;;;;;;0.10;0.10;;;;;;;24.35;57.86;101651.66;7355721;19;20804;-60
2023/09/02 10:29:00;;;;;;;0.10;0.10;;;;;;;24.42;57.74;101655.66;7360325;19;20334;-61
2023/09/02 10:31:30;;;;;;;;;;;;;;;24.67;57.97;101659.38;7362586;19;20010;-60
2023/09/02 10:34:35;;;;;;;0.10;0.10;;;;;;;24.80;57.39;101654.94;7361658;19;19918;-59
2023/09/02 10:37:05;;;;;;;0.10;0.10;;;;;;;24.88;56.81;101663.25;7359619;19;20823;-61
2023/09/02 10:39:57;;;;;;;0.10;0.10;;;;;;;25.14;57.62;101660.66;7364018;19;20022;-61
2023/09/02 10:42:24;;;;;;;0.10;0.10;;;;;;;25.16;56.78;101645.38;7369907;19;20111;-61
2023/09/02 10:44:52;;;;;;;0.10;0.10;;;;;;;25.72;57.44;101667.28;7363706;19;20034;-60
2023/09/02 10:47:17;;;;;;;0.10;0.10;;;;;;;26.09;56.41;101671.72;7361059;19;20015;-60
2023/09/02 10:49:43;;;;;;;0.10;0.10;;;;;;;26.58;55.78;101670.84;7359948;19;20009;-61
2023/09/02 10:52:10;;;;;;;0.10;0.10;;;;;;;27.09;55.37;101670.56;7357091;19;20359;-61
2023/09/02 10:55:02;;;;;;;0.10;0.10;;;;;;;27.82;55.77;101663.94;7357052;19;20002;-61
2023/09/02 10:57:28;;;;;;;0.10;0.10;;;;;;;28.10;53.55;101661.72;7352684;19;20745;-61
2023/09/02 11:00:13;;;;;;;0.00;0.00;;;;;;;28.73;54.32;101662.75;7359436;19;20018;-61
2023/09/02 11:02:43;;;;;;;0.00;0.00;;;;;;;28.85;51.76;101668.94;7358366;19;20015;-60
2023/09/02 11:05:09;;;;;;;0.10;0.10;;;;;;;29.04;51.65;101663.72;7360266;19;20371;-61
2023/09/02 11:07:35;;;;;;;0.00;0.00;;;;;;;29.21;51.11;101671.19;7362442;19;20459;-60
2023/09/02 11:10:02;;;;;;;0.00;0.00;;;;;;;29.37;51.35;101670.72;7363965;19;20567;-61
2023/09/02 11:12:28;;;;;;;0.00;0.00;;;;;;;29.56;50.25;101678.06;7358577;19;21125;-60
2023/09/02 11:15:09;;;;;;;0.10;0.10;;;;;;;29.89;50.67;101684.16;7358649;19;20021;-60
2023/09/02 11:17:36;;;;;;;0.00;0.00;;;;;;;29.84;49.56;101683.69;7363347;19;20014;-61
2023/09/02 11:20:04;;;;;;;0.10;0.10;;;;;;;29.87;49.08;101691.53;7360694;19;20010;-60
2023/09/02 11:22:55;;;;;;;0.10;0.10;;;;;;;29.97;50.30;101695.94;7360811;19;20018;-61
2023/09/02 11:25:41;;;;;;;0.00;0.00;;;;;;;29.87;49.02;101688.81;7360777;19;20033;-60
2023/09/02 11:28:12;;;;;;;0.05;0.05;;;;;;;29.71;48.71;101689.34;7363124;19;20064;-59